createdAt,value
2022-12-03T00:00:12.432Z,391.27
2022-12-03T00:05:15.574Z,391.15
2022-12-03T00:10:22.731Z,390.98
2022-12-03T00:15:29.944Z,390.98
2022-12-03T00:20:37.157Z,390.53
2022-12-03T00:25:44.292Z,390.09
2022-12-03T00:30:51.511Z,391.15
2022-12-03T00:35:58.713Z,391.47
2022-12-03T00:41:05.871Z,390.95
2022-12-03T00:46:15.769Z,391.25
2022-12-03T00:51:20.425Z,390.70
2022-12-03T00:56:27.557Z,391.37
2022-12-03T01:01:34.799Z,390.61
2022-12-03T01:06:41.985Z,391.71
2022-12-03T01:11:49.171Z,391.54
2022-12-03T01:16:56.383Z,390.81
2022-12-03T01:22:03.625Z,391.22
2022-12-03T01:27:10.795Z,392.13
2022-12-03T01:32:18.028Z,392.33
2022-12-03T01:37:25.334Z,392.25
2022-12-03T01:42:32.571Z,392.38
2022-12-03T01:47:39.792Z,391.98
2022-12-03T01:52:47.048Z,391.95
2022-12-03T01:57:54.212Z,392.37
2022-12-03T02:03:01.452Z,391.64
2022-12-03T02:08:08.721Z,391.86
2022-12-03T02:13:19.756Z,392.29
2022-12-03T02:18:26.958Z,391.25
2022-12-03T02:23:34.179Z,391.89
2022-12-03T02:28:41.375Z,391.30
2022-12-03T02:33:48.570Z,391.44
2022-12-03T02:38:55.792Z,391.65
2022-12-03T02:44:02.970Z,391.61
2022-12-03T02:49:10.184Z,391.40
2022-12-03T02:54:17.422Z,390.89
2022-12-03T02:59:24.655Z,390.78
2022-12-03T03:04:31.848Z,391.03
2022-12-03T03:09:39.134Z,390.16
2022-12-03T03:14:46.315Z,389.52
2022-12-03T03:19:53.514Z,389.13
2022-12-03T03:25:00.737Z,389.29
2022-12-03T03:30:07.902Z,389.75
2022-12-03T03:35:15.062Z,388.72
2022-12-03T03:40:22.247Z,389.20
2022-12-03T03:45:29.799Z,389.77
2022-12-03T03:50:36.634Z,389.69
2022-12-03T03:55:43.835Z,390.12
2022-12-03T04:00:51.131Z,389.88
2022-12-03T04:05:58.236Z,389.41
2022-12-03T04:11:05.468Z,389.29
2022-12-03T04:16:12.687Z,390.03
2022-12-03T04:21:19.852Z,389.64
2022-12-03T04:26:27.069Z,389.43
2022-12-03T04:31:34.257Z,390.28
2022-12-03T04:36:41.459Z,390.45
2022-12-03T04:41:48.687Z,390.09
2022-12-03T04:46:55.899Z,389.46
2022-12-03T04:52:03.066Z,389.98
2022-12-03T04:57:10.295Z,388.98
2022-12-03T05:02:17.606Z,388.88
2022-12-03T05:07:24.731Z,390.03
2022-12-03T05:12:31.874Z,388.90
2022-12-03T05:17:39.016Z,389.75
2022-12-03T05:22:46.227Z,389.37
2022-12-03T05:27:53.421Z,389.95
2022-12-03T05:33:00.633Z,390.48
2022-12-03T05:38:07.839Z,391.03
2022-12-03T05:43:15.069Z,391.36
2022-12-03T05:48:22.215Z,391.03
2022-12-03T05:53:29.439Z,390.95
2022-12-03T05:58:36.671Z,390.48
2022-12-03T06:03:44.087Z,390.53
2022-12-03T06:08:51.079Z,389.88
2022-12-03T06:13:58.286Z,390.04
2022-12-03T06:19:05.508Z,389.90
2022-12-03T06:24:12.686Z,389.85
2022-12-03T06:29:20.218Z,390.33
2022-12-03T06:34:27.389Z,390.59
2022-12-03T06:39:34.647Z,390.61
2022-12-03T06:44:41.937Z,390.15
2022-12-03T06:49:49.092Z,389.49
2022-12-03T06:54:56.732Z,389.31
2022-12-03T07:00:03.534Z,390.24
2022-12-03T07:05:10.682Z,389.81
2022-12-03T07:10:17.901Z,390.00
2022-12-03T07:15:25.196Z,389.89
2022-12-03T07:20:32.376Z,389.99
2022-12-03T07:25:39.597Z,390.79
2022-12-03T07:30:46.748Z,390.31
2022-12-03T07:35:53.898Z,390.56
2022-12-03T07:41:01.039Z,390.85
2022-12-03T07:46:08.387Z,390.67
2022-12-03T07:51:15.758Z,390.46
2022-12-03T07:56:22.629Z,390.23
2022-12-03T08:01:29.988Z,390.36
2022-12-03T08:06:37.064Z,389.92
2022-12-03T08:11:44.217Z,390.08
2022-12-03T08:16:51.575Z,390.81
2022-12-03T08:22:01.451Z,391.07
2022-12-03T08:27:05.792Z,391.20
2022-12-03T08:32:13.106Z,391.38
2022-12-03T08:37:20.185Z,391.29
2022-12-03T08:42:27.491Z,391.05
2022-12-03T08:47:34.719Z,391.01
2022-12-03T08:52:41.863Z,390.93
2022-12-03T08:57:49.003Z,391.20
2022-12-03T09:02:56.240Z,390.67
2022-12-03T09:08:03.441Z,390.73
2022-12-03T09:13:10.581Z,390.69
2022-12-03T09:18:17.839Z,390.90
2022-12-03T09:23:25.018Z,391.07
2022-12-03T09:28:32.268Z,391.24
2022-12-03T09:33:39.499Z,391.61
2022-12-03T09:38:48.216Z,391.56
2022-12-03T09:44:13.909Z,392.28
2022-12-03T09:49:01.072Z,392.65
2022-12-03T09:54:08.253Z,393.09
2022-12-03T09:59:15.456Z,393.22
2022-12-03T10:04:22.766Z,394.22
2022-12-03T10:09:29.889Z,395.50
2022-12-03T10:14:37.144Z,395.54
2022-12-03T10:19:44.398Z,396.44
2022-12-03T10:24:52.039Z,396.64
2022-12-03T10:29:58.793Z,397.12
2022-12-03T10:35:06.035Z,397.24
2022-12-03T10:40:13.201Z,398.17
2022-12-03T10:45:20.414Z,398.80
2022-12-03T10:50:27.631Z,399.65
2022-12-03T10:55:34.805Z,400.20
2022-12-03T11:00:42.022Z,400.16
2022-12-03T11:05:49.257Z,399.86
2022-12-03T11:10:56.466Z,400.79
2022-12-03T11:16:03.721Z,401.69
2022-12-03T11:21:10.845Z,401.98
2022-12-03T11:26:19.609Z,402.26
2022-12-03T11:31:25.409Z,402.73
2022-12-03T11:37:00.259Z,402.55
2022-12-03T11:41:39.772Z,403.38
2022-12-03T11:46:47.013Z,403.60
2022-12-03T11:51:54.197Z,404.78
2022-12-03T11:57:01.381Z,405.24
2022-12-03T12:02:08.580Z,406.10
2022-12-03T12:07:15.813Z,407.33
2022-12-03T12:12:22.981Z,406.96
2022-12-03T12:17:30.159Z,407.46
2022-12-03T12:22:37.427Z,407.36
2022-12-03T12:27:44.666Z,407.86
2022-12-03T12:32:51.908Z,408.14
2022-12-03T12:38:00.486Z,408.36
2022-12-03T12:43:12.676Z,408.75
2022-12-03T12:48:13.633Z,409.34
2022-12-03T12:53:20.873Z,409.42
2022-12-03T12:58:28.042Z,409.58
2022-12-03T13:03:35.266Z,410.06
2022-12-03T13:08:42.488Z,409.96
2022-12-03T13:13:49.626Z,410.81
2022-12-03T13:18:56.852Z,410.79
2022-12-03T13:24:04.103Z,410.63
2022-12-03T13:29:11.291Z,411.07
2022-12-03T13:34:18.506Z,411.35
2022-12-03T13:39:25.760Z,410.45
2022-12-03T13:44:32.908Z,411.28
2022-12-03T13:49:40.181Z,411.19
2022-12-03T13:54:47.449Z,411.15
2022-12-03T13:59:54.813Z,411.36
2022-12-03T14:05:01.811Z,412.41
2022-12-03T14:10:09.069Z,412.39
2022-12-03T14:15:16.239Z,411.95
2022-12-03T14:20:23.425Z,412.18
2022-12-03T14:25:30.626Z,412.15
2022-12-03T14:30:37.839Z,412.16
2022-12-03T14:35:45.030Z,412.38
2022-12-03T14:40:52.266Z,412.28
2022-12-03T14:45:59.560Z,411.80
2022-12-03T14:51:06.679Z,412.26
2022-12-03T14:56:13.900Z,412.01
2022-12-03T15:01:21.168Z,411.69
2022-12-03T15:06:28.292Z,411.59
2022-12-03T15:11:35.516Z,411.07
2022-12-03T15:16:42.800Z,411.84
2022-12-03T15:21:49.898Z,411.82
2022-12-03T15:26:57.129Z,411.87
2022-12-03T15:32:04.366Z,412.20
2022-12-03T15:37:12.917Z,411.42
2022-12-03T15:42:20.187Z,411.91
2022-12-03T15:47:27.345Z,411.54
2022-12-03T15:52:34.839Z,411.45
2022-12-03T15:57:42.091Z,411.86
2022-12-03T16:02:52.886Z,411.91
2022-12-03T16:07:56.830Z,412.17
2022-12-03T16:13:04.160Z,412.33
2022-12-03T16:18:11.325Z,412.11
2022-12-03T16:23:18.886Z,412.59
2022-12-03T16:28:26.249Z,412.45
2022-12-03T16:33:33.403Z,412.52
2022-12-03T16:38:40.607Z,412.60
2022-12-03T16:43:48.151Z,413.13
2022-12-03T16:48:55.732Z,413.66
2022-12-03T16:54:03.347Z,413.54
2022-12-03T16:59:10.749Z,413.67
2022-12-03T17:04:18.164Z,413.82
2022-12-03T17:09:25.783Z,414.63
2022-12-03T17:14:33.658Z,414.10
2022-12-03T17:19:40.303Z,415.10
2022-12-03T17:24:49.239Z,415.38
2022-12-03T17:29:57.069Z,415.62
2022-12-03T17:35:04.194Z,415.36
2022-12-03T17:40:11.422Z,415.22
2022-12-03T17:45:18.635Z,416.17
2022-12-03T17:50:26.087Z,415.49
2022-12-03T17:55:41.166Z,416.45
2022-12-03T18:00:42.467Z,416.05
2022-12-03T18:05:49.804Z,417.31
2022-12-03T18:10:57.259Z,417.20
2022-12-03T18:16:04.758Z,417.09
2022-12-03T18:21:11.822Z,418.17
2022-12-03T18:26:19.282Z,419.24
2022-12-03T18:31:26.925Z,419.28
2022-12-03T18:36:34.180Z,419.63
2022-12-03T18:41:41.715Z,419.16
2022-12-03T18:46:53.989Z,419.77
2022-12-03T18:51:59.625Z,419.62
2022-12-03T18:57:03.492Z,419.89
2022-12-03T19:02:11.610Z,419.84
2022-12-03T19:07:18.870Z,418.40
2022-12-03T19:12:26.489Z,419.65
2022-12-03T19:17:34.122Z,419.08
2022-12-03T19:22:41.808Z,418.95
2022-12-03T19:27:49.427Z,419.22
2022-12-03T19:32:57.161Z,419.10
2022-12-03T19:38:04.755Z,418.48
2022-12-03T19:43:12.367Z,419.05
2022-12-03T19:48:20.018Z,419.08
2022-12-03T19:53:27.288Z,419.22
2022-12-03T19:58:34.808Z,419.70
2022-12-03T20:03:42.336Z,420.09
2022-12-03T20:08:49.834Z,419.58
2022-12-03T20:13:57.453Z,420.32
2022-12-03T20:19:05.178Z,420.16
2022-12-03T20:24:12.482Z,420.31
2022-12-03T20:29:19.977Z,419.63
2022-12-03T20:34:27.616Z,420.42
2022-12-03T20:39:36.231Z,420.71
2022-12-03T20:44:43.843Z,421.41
2022-12-03T20:49:52.435Z,421.37
2022-12-03T20:54:59.380Z,421.24
2022-12-03T21:00:06.914Z,421.70
2022-12-03T21:05:14.630Z,421.99
2022-12-03T21:10:22.427Z,422.47
2022-12-03T21:15:30.147Z,422.14
2022-12-03T21:20:37.786Z,422.08
2022-12-03T21:25:45.371Z,421.47
2022-12-03T21:30:52.812Z,421.55
2022-12-03T21:36:00.050Z,422.19
2022-12-03T21:41:07.185Z,421.41
2022-12-03T21:47:11.157Z,422.41
2022-12-03T21:51:21.948Z,422.89
2022-12-03T21:56:29.268Z,423.37
2022-12-03T22:01:36.604Z,423.24
2022-12-03T22:06:43.749Z,423.66
2022-12-03T22:11:50.909Z,423.35
2022-12-03T22:16:58.120Z,424.28
2022-12-03T22:22:05.340Z,424.18
2022-12-03T22:27:12.558Z,423.35
2022-12-03T22:32:19.783Z,423.16
2022-12-03T22:37:28.105Z,423.43
2022-12-03T22:42:35.413Z,424.66
2022-12-03T22:47:42.598Z,424.36
2022-12-03T22:52:49.863Z,424.17
2022-12-03T22:57:57.022Z,425.92
2022-12-03T23:03:04.299Z,425.17
2022-12-03T23:08:11.526Z,425.77
2022-12-03T23:13:18.629Z,426.18
2022-12-03T23:18:25.769Z,426.85
2022-12-03T23:23:32.978Z,425.60
2022-12-03T23:28:40.165Z,425.83
2022-12-03T23:33:47.332Z,425.93
2022-12-03T23:38:54.569Z,425.76
2022-12-03T23:44:01.751Z,424.83
2022-12-03T23:49:08.959Z,425.41
2022-12-03T23:54:16.193Z,426.32
2022-12-03T23:59:23.349Z,426.37
